createdAt,value
2017-12-12T00:00:53.113Z,0
2017-12-12T00:01:53.848Z,0
2017-12-12T00:02:54.594Z,0
2017-12-12T00:03:55.322Z,0
2017-12-12T00:04:56.041Z,0
2017-12-12T00:05:56.824Z,0
2017-12-12T00:06:57.530Z,0
2017-12-12T00:07:58.249Z,0
2017-12-12T00:08:58.958Z,0
2017-12-12T00:09:59.672Z,0
2017-12-12T00:11:00.463Z,0
2017-12-12T00:12:01.268Z,0
2017-12-12T00:13:02.030Z,0
2017-12-12T00:14:02.837Z,0
2017-12-12T00:15:03.639Z,0
2017-12-12T00:16:04.403Z,0
2017-12-12T00:17:05.139Z,0
2017-12-12T00:18:05.866Z,0
2017-12-12T00:19:06.579Z,0
2017-12-12T00:20:07.301Z,0
2017-12-12T00:21:08.065Z,0
2017-12-12T00:22:08.823Z,0
2017-12-12T00:23:09.630Z,0
2017-12-12T00:24:10.440Z,0
2017-12-12T00:25:11.161Z,0
2017-12-12T00:26:11.905Z,0
2017-12-12T00:27:12.669Z,0
2017-12-12T00:28:13.395Z,0
2017-12-12T00:29:14.180Z,0
2017-12-12T00:30:14.902Z,0
2017-12-12T00:31:15.644Z,0
2017-12-12T00:32:16.425Z,0
2017-12-12T00:33:17.152Z,0
2017-12-12T00:34:17.951Z,0
2017-12-12T00:35:18.753Z,0
2017-12-12T00:36:19.474Z,0
2017-12-12T00:37:20.186Z,0
2017-12-12T00:38:20.945Z,0
2017-12-12T00:39:21.655Z,0
2017-12-12T00:40:22.364Z,0
2017-12-12T00:41:23.082Z,0
2017-12-12T00:42:23.795Z,0
2017-12-12T00:43:24.578Z,0
2017-12-12T00:44:25.299Z,0
2017-12-12T00:45:26.034Z,0
2017-12-12T00:46:26.809Z,0
2017-12-12T00:47:27.530Z,0
2017-12-12T00:48:28.293Z,0
2017-12-12T00:49:29.090Z,0
2017-12-12T00:50:29.883Z,0
2017-12-12T00:51:30.606Z,0
2017-12-12T00:52:31.407Z,0
2017-12-12T00:53:32.175Z,0
2017-12-12T00:54:32.975Z,0
2017-12-12T00:55:33.767Z,0
2017-12-12T00:56:34.557Z,0
2017-12-12T00:57:35.338Z,0
2017-12-12T00:58:36.053Z,0
2017-12-12T00:59:36.778Z,0
2017-12-12T01:00:37.497Z,0
2017-12-12T01:01:38.230Z,0
2017-12-12T01:02:39.007Z,0
2017-12-12T01:03:39.785Z,0
2017-12-12T01:04:40.737Z,0
2017-12-12T01:05:41.547Z,0
2017-12-12T01:06:42.350Z,0
2017-12-12T01:07:43.112Z,0
2017-12-12T01:08:43.839Z,0
2017-12-12T01:09:44.617Z,0
2017-12-12T01:10:45.339Z,0
2017-12-12T01:11:46.149Z,0
2017-12-12T01:12:46.863Z,0
2017-12-12T01:13:47.582Z,0
2017-12-12T01:14:48.312Z,0
2017-12-12T01:15:49.033Z,0
2017-12-12T01:16:49.738Z,0
2017-12-12T01:17:50.511Z,0
2017-12-12T01:18:51.235Z,0
2017-12-12T01:19:51.967Z,0
2017-12-12T01:20:52.782Z,0
2017-12-12T01:21:53.581Z,0
2017-12-12T01:22:54.344Z,0
2017-12-12T01:23:55.152Z,0
2017-12-12T01:24:55.870Z,0
2017-12-12T01:25:56.589Z,0
2017-12-12T01:26:57.362Z,0
2017-12-12T01:27:58.103Z,0
2017-12-12T01:28:58.869Z,0
2017-12-12T01:29:59.596Z,0
2017-12-12T01:31:00.367Z,0
2017-12-12T01:32:01.093Z,0
2017-12-12T01:33:01.877Z,0
2017-12-12T01:34:02.590Z,0
2017-12-12T01:35:03.325Z,0
2017-12-12T01:36:04.052Z,0
2017-12-12T01:37:04.779Z,0
2017-12-12T01:38:05.560Z,0
2017-12-12T01:39:06.298Z,0
2017-12-12T01:40:07.068Z,0
2017-12-12T01:41:07.790Z,0
2017-12-12T01:42:08.568Z,0
2017-12-12T01:43:09.284Z,0
2017-12-12T01:44:10.092Z,0
2017-12-12T01:45:10.872Z,0
2017-12-12T01:46:11.596Z,0
2017-12-12T01:47:12.358Z,0
2017-12-12T01:48:13.160Z,0
2017-12-12T01:49:13.911Z,0
2017-12-12T01:50:14.668Z,0
2017-12-12T01:51:15.387Z,0
2017-12-12T01:52:16.188Z,0
2017-12-12T01:53:16.908Z,0
2017-12-12T01:54:17.621Z,0
2017-12-12T01:55:18.345Z,0
2017-12-12T01:56:19.123Z,0
2017-12-12T01:57:19.915Z,0
2017-12-12T01:58:20.642Z,0
2017-12-12T01:59:21.353Z,0
2017-12-12T02:00:22.086Z,0
2017-12-12T02:01:22.909Z,0
2017-12-12T02:02:23.642Z,0
2017-12-12T02:03:24.355Z,0
2017-12-12T02:04:25.076Z,0
2017-12-12T02:05:25.845Z,0
2017-12-12T02:06:26.696Z,0
2017-12-12T02:07:27.503Z,0
2017-12-12T02:08:28.288Z,0
2017-12-12T02:09:29.078Z,0
2017-12-12T02:10:29.877Z,0
2017-12-12T02:11:30.654Z,0
2017-12-12T02:12:31.373Z,0
2017-12-12T02:13:32.167Z,0
2017-12-12T02:14:32.894Z,0
2017-12-12T02:15:33.618Z,0
2017-12-12T02:16:34.413Z,0
2017-12-12T02:17:35.180Z,0
2017-12-12T02:18:35.967Z,0
2017-12-12T02:19:36.689Z,0
2017-12-12T02:20:37.410Z,0
2017-12-12T02:21:38.216Z,0
2017-12-12T02:22:38.988Z,0
2017-12-12T02:23:39.705Z,0
2017-12-12T02:24:40.516Z,0
2017-12-12T02:25:41.292Z,0
2017-12-12T02:26:42.015Z,0
2017-12-12T02:27:42.817Z,0
2017-12-12T02:28:43.614Z,0
2017-12-12T02:29:44.396Z,0
2017-12-12T02:30:45.101Z,0
2017-12-12T02:31:45.827Z,0
2017-12-12T02:32:46.622Z,0
2017-12-12T02:33:47.342Z,0
2017-12-12T02:34:48.092Z,0
2017-12-12T02:35:48.850Z,0
2017-12-12T02:36:49.645Z,0
2017-12-12T02:37:50.412Z,0
2017-12-12T02:38:51.201Z,0
2017-12-12T02:39:52.012Z,0
2017-12-12T02:40:52.723Z,0
2017-12-12T02:41:53.449Z,0
2017-12-12T02:42:54.168Z,0
2017-12-12T02:43:54.943Z,0
2017-12-12T02:44:55.660Z,0
2017-12-12T02:45:56.469Z,0
2017-12-12T02:46:57.243Z,0
2017-12-12T02:47:58.027Z,0
2017-12-12T02:48:58.802Z,0
2017-12-12T02:49:59.522Z,0
2017-12-12T02:51:00.292Z,0
2017-12-12T02:52:01.009Z,0
2017-12-12T02:53:01.743Z,0
2017-12-12T02:54:02.448Z,0
2017-12-12T02:55:03.164Z,0
2017-12-12T02:56:03.943Z,0
2017-12-12T02:57:04.660Z,0
2017-12-12T02:58:05.379Z,0
2017-12-12T02:59:06.112Z,0
2017-12-12T03:00:06.834Z,0
2017-12-12T03:01:07.654Z,0
2017-12-12T03:02:08.379Z,0
2017-12-12T03:03:09.088Z,0
2017-12-12T03:04:09.796Z,0
2017-12-12T03:05:10.497Z,0
2017-12-12T03:06:11.219Z,0
2017-12-12T03:07:11.945Z,0
2017-12-12T03:08:12.741Z,0
2017-12-12T03:09:13.512Z,0
2017-12-12T03:10:14.233Z,0
2017-12-12T03:11:15.014Z,0
2017-12-12T03:12:15.790Z,0
2017-12-12T03:13:16.502Z,0
2017-12-12T03:14:17.332Z,0
2017-12-12T03:15:18.061Z,0
2017-12-12T03:16:18.782Z,0
2017-12-12T03:17:19.498Z,0
2017-12-12T03:18:20.235Z,0
2017-12-12T03:19:20.967Z,0
2017-12-12T03:20:21.754Z,0
2017-12-12T03:21:22.479Z,0
2017-12-12T03:22:23.230Z,0
2017-12-12T03:23:23.954Z,0
2017-12-12T03:24:24.751Z,0
2017-12-12T03:25:25.513Z,0
2017-12-12T03:26:26.222Z,0
2017-12-12T03:27:26.942Z,0
2017-12-12T03:28:27.658Z,0
2017-12-12T03:29:28.442Z,0
2017-12-12T03:30:29.160Z,0
2017-12-12T03:32:44.141Z,0
2017-12-12T03:33:44.861Z,0
2017-12-12T03:34:45.632Z,0
2017-12-12T03:35:46.340Z,0
2017-12-12T03:36:47.157Z,0
2017-12-12T03:37:47.943Z,0
2017-12-12T03:38:48.654Z,0
2017-12-12T03:39:49.443Z,0
2017-12-12T03:42:04.493Z,0
2017-12-12T03:43:05.292Z,0
2017-12-12T03:44:06.059Z,0
2017-12-12T03:45:06.778Z,0
2017-12-12T03:46:07.501Z,0
2017-12-12T03:47:08.238Z,0
2017-12-12T03:48:08.949Z,0
2017-12-12T03:49:09.665Z,0
2017-12-12T03:50:10.507Z,0
2017-12-12T03:51:11.233Z,0
2017-12-12T03:52:12.007Z,0
2017-12-12T03:53:12.721Z,0
2017-12-12T03:54:13.483Z,0
2017-12-12T03:55:14.202Z,0
2017-12-12T03:56:15.039Z,0
2017-12-12T03:57:15.790Z,0
2017-12-12T03:58:16.519Z,0
2017-12-12T03:59:17.292Z,0
2017-12-12T04:00:17.999Z,0
2017-12-12T04:01:18.841Z,0
2017-12-12T04:02:19.560Z,0
2017-12-12T04:03:20.281Z,0
2017-12-12T04:04:21.074Z,0
2017-12-12T04:05:21.769Z,0
2017-12-12T04:06:22.558Z,0
2017-12-12T04:07:23.269Z,0
2017-12-12T04:08:23.988Z,0
2017-12-12T04:09:24.693Z,0
2017-12-12T04:10:25.500Z,0
2017-12-12T04:11:26.322Z,0
2017-12-12T04:12:27.083Z,0
2017-12-12T04:13:27.850Z,0
2017-12-12T04:14:28.562Z,0
2017-12-12T04:15:29.364Z,0
2017-12-12T04:16:30.123Z,0
2017-12-12T04:17:30.868Z,0
2017-12-12T04:18:31.581Z,0
2017-12-12T04:19:32.314Z,0
2017-12-12T04:20:33.029Z,0
2017-12-12T04:21:33.802Z,0
2017-12-12T04:22:34.516Z,0
2017-12-12T04:23:35.229Z,0
2017-12-12T04:24:35.959Z,0
2017-12-12T04:25:36.675Z,0
2017-12-12T04:26:37.430Z,0
2017-12-12T04:27:38.221Z,0
2017-12-12T04:28:38.965Z,0
2017-12-12T04:29:39.802Z,0
2017-12-12T04:30:40.519Z,0
2017-12-12T04:31:41.314Z,0
2017-12-12T04:32:42.114Z,0
2017-12-12T04:33:42.903Z,0
2017-12-12T04:34:43.675Z,0
2017-12-12T04:35:44.379Z,0
2017-12-12T04:36:45.111Z,0
2017-12-12T04:37:45.900Z,0
2017-12-12T04:38:46.629Z,0
2017-12-12T04:39:47.384Z,0
2017-12-12T04:40:48.172Z,0
2017-12-12T04:41:48.907Z,0
2017-12-12T04:42:49.622Z,0
2017-12-12T04:43:50.349Z,0
2017-12-12T04:44:51.063Z,0
2017-12-12T04:45:51.791Z,0
2017-12-12T04:46:52.607Z,0
2017-12-12T04:47:53.383Z,0
2017-12-12T04:48:54.103Z,0
2017-12-12T04:49:54.810Z,0
2017-12-12T04:50:55.530Z,0
2017-12-12T04:51:56.303Z,0
2017-12-12T04:52:57.017Z,0
2017-12-12T04:53:57.811Z,0
2017-12-12T04:54:58.578Z,0
2017-12-12T04:55:59.294Z,0
2017-12-12T04:57:00.068Z,0
2017-12-12T04:58:00.790Z,0
2017-12-12T04:59:01.592Z,0
2017-12-12T05:00:02.363Z,0
2017-12-12T05:01:03.111Z,0
2017-12-12T05:02:03.882Z,0
2017-12-12T05:03:04.653Z,0
2017-12-12T05:04:05.373Z,0
2017-12-12T05:05:06.230Z,0
2017-12-12T05:06:06.943Z,0
2017-12-12T05:07:07.667Z,0
2017-12-12T05:08:08.373Z,0
2017-12-12T05:09:09.168Z,0
2017-12-12T05:10:09.893Z,0
2017-12-12T05:11:10.645Z,0
2017-12-12T05:12:11.434Z,0
2017-12-12T05:13:12.164Z,0
2017-12-12T05:14:12.918Z,0
2017-12-12T05:15:13.652Z,0
2017-12-12T05:16:14.375Z,0
2017-12-12T05:17:15.168Z,0
2017-12-12T05:18:15.934Z,0
2017-12-12T05:19:16.661Z,0
2017-12-12T05:20:17.413Z,0
2017-12-12T05:21:18.123Z,0
2017-12-12T05:22:18.877Z,0
2017-12-12T05:23:19.589Z,0
2017-12-12T05:24:20.380Z,0
2017-12-12T05:25:21.097Z,0
2017-12-12T05:26:21.890Z,0
2017-12-12T05:27:22.719Z,0
2017-12-12T05:28:23.476Z,0
2017-12-12T05:29:24.160Z,0
2017-12-12T05:30:24.946Z,0
2017-12-12T05:31:25.664Z,0
2017-12-12T05:32:26.472Z,0
2017-12-12T05:33:27.235Z,0
2017-12-12T05:34:28.025Z,0
2017-12-12T05:35:28.810Z,0
2017-12-12T05:36:29.523Z,0
2017-12-12T05:37:30.240Z,0
2017-12-12T05:38:30.948Z,0
2017-12-12T05:39:31.663Z,0
2017-12-12T05:40:32.372Z,0
2017-12-12T05:41:33.089Z,0
2017-12-12T05:42:33.877Z,0
2017-12-12T05:43:34.643Z,0
2017-12-12T05:44:35.365Z,0
2017-12-12T05:45:36.165Z,0
2017-12-12T05:46:36.920Z,0
2017-12-12T05:47:37.695Z,0
2017-12-12T05:48:38.493Z,0
2017-12-12T05:49:39.204Z,0
2017-12-12T05:50:39.985Z,0
2017-12-12T05:51:40.698Z,0
2017-12-12T05:52:41.494Z,0
2017-12-12T05:53:42.213Z,0
2017-12-12T05:54:42.939Z,0
2017-12-12T05:55:43.673Z,0
2017-12-12T05:56:44.448Z,0
2017-12-12T05:57:45.254Z,0
2017-12-12T05:58:46.077Z,0
2017-12-12T05:59:46.759Z,0
2017-12-12T06:00:47.478Z,0
2017-12-12T06:01:48.189Z,0
2017-12-12T06:02:48.902Z,0
2017-12-12T06:03:49.602Z,0
2017-12-12T06:04:50.378Z,0
2017-12-12T06:05:51.171Z,0
2017-12-12T06:06:52.858Z,0
2017-12-12T06:07:53.641Z,0
2017-12-12T06:08:54.414Z,0
2017-12-12T06:09:55.132Z,0
2017-12-12T06:10:55.857Z,0
2017-12-12T06:11:56.619Z,0
2017-12-12T06:12:57.451Z,0
2017-12-12T06:13:58.241Z,0
2017-12-12T06:14:58.977Z,0
2017-12-12T06:15:59.931Z,0
2017-12-12T06:17:00.721Z,0
2017-12-12T06:18:01.489Z,0
2017-12-12T06:19:02.200Z,0
2017-12-12T06:20:02.992Z,0
2017-12-12T06:21:03.714Z,0
2017-12-12T06:22:04.502Z,0
2017-12-12T06:23:05.271Z,0
2017-12-12T06:24:06.000Z,0
2017-12-12T06:25:06.755Z,0
2017-12-12T06:26:07.566Z,0
2017-12-12T06:27:08.333Z,0
2017-12-12T06:28:09.089Z,0
2017-12-12T06:29:09.809Z,0
2017-12-12T06:30:10.521Z,0
2017-12-12T06:31:11.323Z,0
2017-12-12T06:32:12.056Z,0
2017-12-12T06:33:12.823Z,0
2017-12-12T06:34:13.549Z,0
2017-12-12T06:35:14.264Z,0
2017-12-12T06:36:14.986Z,0
2017-12-12T06:37:15.796Z,0
2017-12-12T06:38:16.603Z,0
2017-12-12T06:39:17.336Z,0
2017-12-12T06:40:18.054Z,0
2017-12-12T06:41:18.843Z,0
2017-12-12T06:42:19.564Z,0
2017-12-12T06:43:20.402Z,0
2017-12-12T06:44:21.124Z,0
2017-12-12T06:45:21.921Z,0
2017-12-12T06:46:22.659Z,0
2017-12-12T06:47:23.452Z,0
2017-12-12T06:48:24.272Z,0
2017-12-12T06:49:25.007Z,0
2017-12-12T06:50:25.785Z,0
2017-12-12T06:51:26.516Z,0
2017-12-12T06:52:27.281Z,0
2017-12-12T06:53:28.045Z,4
2017-12-12T06:54:28.880Z,4
2017-12-12T06:55:29.608Z,4
2017-12-12T06:56:30.395Z,4
2017-12-12T06:57:31.189Z,4
2017-12-12T06:58:31.913Z,4
2017-12-12T06:59:32.675Z,8
2017-12-12T07:00:33.414Z,4
2017-12-12T07:01:34.195Z,8
2017-12-12T07:02:34.898Z,8
2017-12-12T07:03:35.627Z,12
2017-12-12T07:04:36.400Z,16
2017-12-12T07:05:37.189Z,16
2017-12-12T07:06:37.913Z,20
2017-12-12T07:07:38.647Z,20
2017-12-12T07:08:39.423Z,24
2017-12-12T07:09:40.189Z,28
2017-12-12T07:10:40.917Z,40
2017-12-12T07:11:41.658Z,40
2017-12-12T07:12:42.382Z,48
2017-12-12T07:13:43.095Z,52
2017-12-12T07:14:43.801Z,68
2017-12-12T07:15:44.575Z,76
2017-12-12T07:16:45.348Z,88
2017-12-12T07:17:46.070Z,100
2017-12-12T07:18:46.796Z,96
2017-12-12T07:19:47.570Z,104
2017-12-12T07:20:48.403Z,116
2017-12-12T07:21:49.213Z,120
2017-12-12T07:22:50.000Z,156
2017-12-12T07:23:50.730Z,180
2017-12-12T07:24:51.454Z,200
2017-12-12T07:25:52.230Z,232
2017-12-12T07:26:53.025Z,248
2017-12-12T07:27:53.756Z,288
2017-12-12T07:28:54.474Z,312
2017-12-12T07:29:55.272Z,328
2017-12-12T07:30:56.037Z,356
2017-12-12T07:31:56.757Z,412
2017-12-12T07:32:57.528Z,448
2017-12-12T07:33:58.250Z,440
2017-12-12T07:34:58.971Z,508
2017-12-12T07:35:59.729Z,524
2017-12-12T07:37:00.459Z,516
2017-12-12T07:38:01.253Z,548
2017-12-12T07:39:02.028Z,584
2017-12-12T07:40:02.740Z,536
2017-12-12T07:41:03.530Z,592
2017-12-12T07:42:04.332Z,600
2017-12-12T07:43:05.038Z,628
2017-12-12T07:44:05.763Z,632
2017-12-12T07:45:06.608Z,672
2017-12-12T07:46:07.328Z,784
2017-12-12T07:47:08.041Z,800
2017-12-12T07:48:08.757Z,844
2017-12-12T07:49:09.481Z,996
2017-12-12T07:50:10.214Z,976
2017-12-12T07:51:10.942Z,996
2017-12-12T07:52:11.664Z,1012
2017-12-12T07:53:12.472Z,1176
2017-12-12T07:54:13.189Z,1324
2017-12-12T07:55:13.958Z,1408
2017-12-12T07:56:14.672Z,1432
2017-12-12T07:57:15.400Z,1396
2017-12-12T07:58:16.127Z,1324
2017-12-12T07:59:16.931Z,1352
2017-12-12T08:00:17.738Z,1432
2017-12-12T08:01:18.478Z,1396
2017-12-12T08:02:19.222Z,1388
2017-12-12T08:03:19.987Z,1408
2017-12-12T08:04:20.749Z,1412
2017-12-12T08:05:21.460Z,1344
2017-12-12T08:06:22.252Z,1388
2017-12-12T08:07:22.979Z,1324
2017-12-12T08:08:23.707Z,1364
2017-12-12T08:09:24.517Z,1628
2017-12-12T08:10:25.279Z,1624
2017-12-12T08:11:25.994Z,1748
2017-12-12T08:12:26.768Z,1832
2017-12-12T08:13:27.492Z,1800
2017-12-12T08:14:28.334Z,1828
2017-12-12T08:15:29.063Z,1920
2017-12-12T08:16:29.792Z,1816
2017-12-12T08:17:30.575Z,1856
2017-12-12T08:18:31.357Z,2028
2017-12-12T08:19:32.080Z,2096
2017-12-12T08:20:32.923Z,2016
2017-12-12T08:21:33.643Z,2240
2017-12-12T08:22:34.372Z,2568
2017-12-12T08:23:35.083Z,2748
2017-12-12T08:24:35.866Z,2684
2017-12-12T08:25:36.681Z,2928
2017-12-12T08:26:37.412Z,2828
2017-12-12T08:27:38.129Z,2772
2017-12-12T08:28:38.855Z,2564
2017-12-12T08:29:39.635Z,2268
2017-12-12T08:30:40.442Z,2212
2017-12-12T08:31:41.159Z,2448
2017-12-12T08:32:41.888Z,2412
2017-12-12T08:33:42.663Z,2860
2017-12-12T08:34:43.330Z,2524
2017-12-12T08:35:44.052Z,2600
2017-12-12T08:36:44.772Z,2472
2017-12-12T08:37:45.492Z,2748
2017-12-12T08:38:46.213Z,2220
2017-12-12T08:39:46.986Z,2400
2017-12-12T08:40:47.737Z,2584
2017-12-12T08:41:48.491Z,2728
2017-12-12T08:42:49.173Z,2620
2017-12-12T08:43:49.972Z,2708
2017-12-12T08:44:50.738Z,2396
2017-12-12T08:45:51.458Z,2276
2017-12-12T08:46:52.177Z,2748
2017-12-12T08:47:52.897Z,2652
2017-12-12T08:48:53.617Z,2844
2017-12-12T08:49:54.414Z,2660
2017-12-12T08:50:55.138Z,3084
2017-12-12T08:51:55.872Z,3536
2017-12-12T08:52:56.591Z,3084
2017-12-12T08:53:57.308Z,3012
2017-12-12T08:54:58.039Z,2964
2017-12-12T08:55:58.809Z,2848
2017-12-12T08:56:59.597Z,2796
2017-12-12T08:58:00.453Z,2908
2017-12-12T08:59:01.233Z,2468
2017-12-12T09:00:02.034Z,2660
2017-12-12T09:01:02.834Z,2604
2017-12-12T09:02:03.624Z,2548
2017-12-12T09:03:04.408Z,2540
2017-12-12T09:04:05.129Z,2436
2017-12-12T09:05:05.848Z,2296
2017-12-12T09:06:06.638Z,2548
2017-12-12T09:07:07.363Z,2572
2017-12-12T09:08:08.074Z,2288
2017-12-12T09:09:08.877Z,2696
2017-12-12T09:10:09.677Z,2324
2017-12-12T09:11:10.517Z,2428
2017-12-12T09:12:11.250Z,2264
2017-12-12T09:13:12.043Z,2440
2017-12-12T09:14:12.835Z,2424
2017-12-12T09:15:13.574Z,2664
2017-12-12T09:16:14.411Z,3280
2017-12-12T09:17:15.122Z,3588
2017-12-12T09:18:15.850Z,3620
2017-12-12T09:19:16.643Z,3296
2017-12-12T09:20:17.364Z,3648
2017-12-12T09:21:18.149Z,3104
2017-12-12T09:22:18.877Z,2512
2017-12-12T09:23:19.603Z,2628
2017-12-12T09:24:20.391Z,2048
2017-12-12T09:25:21.111Z,1816
2017-12-12T09:26:21.908Z,2288
2017-12-12T09:27:22.638Z,2628
2017-12-12T09:28:23.410Z,3192
2017-12-12T09:29:24.209Z,2604
2017-12-12T09:30:25.005Z,2728
2017-12-12T09:31:25.723Z,2976
2017-12-12T09:32:26.489Z,3600
2017-12-12T09:33:27.348Z,3032
2017-12-12T09:34:28.129Z,2864
2017-12-12T09:35:28.919Z,2796
2017-12-12T09:36:29.643Z,2852
2017-12-12T09:37:30.443Z,3148
2017-12-12T09:38:31.216Z,3156
2017-12-12T09:39:31.982Z,3268
2017-12-12T09:40:32.700Z,4052
2017-12-12T09:41:33.510Z,4736
2017-12-12T09:42:34.250Z,3936
2017-12-12T09:43:34.990Z,3636
2017-12-12T09:44:35.770Z,3088
2017-12-12T09:45:36.498Z,3404
2017-12-12T09:46:37.221Z,3544
2017-12-12T09:47:38.062Z,4368
2017-12-12T09:48:38.844Z,3952
2017-12-12T09:49:39.693Z,4064
2017-12-12T09:50:40.482Z,4404
2017-12-12T09:51:41.204Z,4776
2017-12-12T09:52:42.017Z,4700
2017-12-12T09:53:42.787Z,4072
2017-12-12T09:54:43.629Z,3808
2017-12-12T09:55:44.388Z,4000
2017-12-12T09:56:45.109Z,3696
2017-12-12T09:57:45.828Z,3208
2017-12-12T09:58:46.561Z,2780
2017-12-12T09:59:47.322Z,2240
2017-12-12T10:00:48.040Z,2116
2017-12-12T10:01:48.837Z,2208
2017-12-12T10:02:49.558Z,2036
2017-12-12T10:03:50.352Z,2420
2017-12-12T10:04:51.149Z,2568
2017-12-12T10:05:51.869Z,2808
2017-12-12T10:06:52.589Z,2912
2017-12-12T10:07:53.322Z,3400
2017-12-12T10:08:54.089Z,4008
2017-12-12T10:09:54.878Z,3548
2017-12-12T10:10:55.600Z,3580
2017-12-12T10:11:56.392Z,3768
2017-12-12T10:12:57.124Z,3296
2017-12-12T10:13:57.902Z,3752
2017-12-12T10:14:58.622Z,4256
2017-12-12T10:15:59.422Z,4832
2017-12-12T10:17:00.206Z,4836
2017-12-12T10:18:01.000Z,4980
2017-12-12T10:19:01.823Z,4432
2017-12-12T10:20:02.623Z,4416
2017-12-12T10:21:03.340Z,4424
2017-12-12T10:22:04.069Z,5632
2017-12-12T10:23:04.838Z,6108
2017-12-12T10:24:05.622Z,6676
2017-12-12T10:25:06.351Z,6748
2017-12-12T10:26:07.091Z,7236
2017-12-12T10:27:07.873Z,6220
2017-12-12T10:28:08.598Z,6992
2017-12-12T10:29:09.322Z,6292
2017-12-12T10:30:10.041Z,6308
2017-12-12T10:31:10.802Z,6740
2017-12-12T10:32:11.622Z,6120
2017-12-12T10:33:12.347Z,5780
2017-12-12T10:34:13.072Z,5360
2017-12-12T10:35:13.793Z,6032
2017-12-12T10:36:14.599Z,5296
2017-12-12T10:37:15.368Z,4664
2017-12-12T10:38:16.104Z,4876
2017-12-12T10:39:16.902Z,4748
2017-12-12T10:40:17.672Z,5180
2017-12-12T10:41:18.397Z,4932
2017-12-12T10:42:19.181Z,4304
2017-12-12T10:43:19.958Z,4708
2017-12-12T10:44:20.689Z,4616
2017-12-12T10:45:21.408Z,4152
2017-12-12T10:46:22.133Z,4676
2017-12-12T10:47:22.980Z,4192
2017-12-12T10:48:23.765Z,4184
2017-12-12T10:49:24.481Z,4236
2017-12-12T10:50:25.199Z,4280
2017-12-12T10:51:25.995Z,4248
2017-12-12T10:52:26.769Z,3992
2017-12-12T10:53:27.500Z,3804
2017-12-12T10:54:28.279Z,4312
2017-12-12T10:55:28.997Z,3928
2017-12-12T10:56:29.726Z,3528
2017-12-12T10:57:30.493Z,3812
2017-12-12T10:58:31.313Z,4344
2017-12-12T10:59:32.090Z,4592
2017-12-12T11:00:32.867Z,4704
2017-12-12T11:01:33.579Z,3592
2017-12-12T11:02:34.431Z,3356
2017-12-12T11:03:35.159Z,3220
2017-12-12T11:04:35.878Z,3004
2017-12-12T11:05:36.602Z,3380
2017-12-12T11:06:37.364Z,3272
2017-12-12T11:07:38.208Z,3844
2017-12-12T11:08:38.960Z,4056
2017-12-12T11:09:39.728Z,3752
2017-12-12T11:10:40.526Z,4612
2017-12-12T11:11:41.248Z,4292
2017-12-12T11:12:41.983Z,4236
2017-12-12T11:13:42.706Z,3788
2017-12-12T11:14:43.424Z,3852
2017-12-12T11:15:44.161Z,3644
2017-12-12T11:16:44.913Z,4048
2017-12-12T11:17:45.753Z,4300
2017-12-12T11:18:46.542Z,4236
2017-12-12T11:19:47.272Z,3612
2017-12-12T11:20:48.011Z,3680
2017-12-12T11:21:48.787Z,3168
2017-12-12T11:22:49.518Z,3436
2017-12-12T11:23:50.238Z,3912
2017-12-12T11:24:50.969Z,4016
2017-12-12T11:25:51.688Z,4208
2017-12-12T11:26:52.409Z,4068
2017-12-12T11:27:53.129Z,4880
2017-12-12T11:28:53.862Z,4372
2017-12-12T11:29:54.578Z,4764
2017-12-12T11:30:55.297Z,5040
2017-12-12T11:31:56.033Z,4840
2017-12-12T11:32:56.824Z,4648
2017-12-12T11:33:57.596Z,5004
2017-12-12T11:34:58.332Z,5012
2017-12-12T11:35:59.078Z,4808
2017-12-12T11:36:59.797Z,5352
2017-12-12T11:38:00.589Z,5128
2017-12-12T11:39:01.370Z,4480
2017-12-12T11:40:02.096Z,4356
2017-12-12T11:41:02.813Z,4912
2017-12-12T11:42:03.542Z,4720
2017-12-12T11:43:04.334Z,4620
2017-12-12T11:44:05.052Z,5208
2017-12-12T11:45:05.771Z,5056
2017-12-12T11:46:06.493Z,5008
2017-12-12T11:47:07.224Z,4216
2017-12-12T11:48:07.950Z,3992
2017-12-12T11:49:08.812Z,4012
2017-12-12T11:50:09.520Z,3564
2017-12-12T11:51:10.242Z,3924
2017-12-12T11:52:10.966Z,3984
2017-12-12T11:53:11.752Z,3464
2017-12-12T11:54:12.599Z,3404
2017-12-12T11:55:13.319Z,3552
2017-12-12T11:56:14.038Z,4080
2017-12-12T11:57:14.759Z,4684
2017-12-12T11:58:15.550Z,4644
2017-12-12T11:59:16.272Z,4860
2017-12-12T12:00:17.040Z,4284
2017-12-12T12:01:17.827Z,4668
2017-12-12T12:02:18.591Z,4704
2017-12-12T12:03:19.267Z,4316
2017-12-12T12:04:20.005Z,4944
2017-12-12T12:05:20.807Z,5108
2017-12-12T12:06:21.528Z,4872
2017-12-12T12:07:22.298Z,4964
2017-12-12T12:08:23.021Z,4848
2017-12-12T12:09:23.833Z,6380
2017-12-12T12:10:24.574Z,6660
2017-12-12T12:11:25.373Z,7280
2017-12-12T12:12:26.161Z,6612
2017-12-12T12:13:26.940Z,7108
2017-12-12T12:14:27.715Z,7356
2017-12-12T12:15:28.439Z,6976
2017-12-12T12:16:29.165Z,6956
2017-12-12T12:17:29.951Z,6468
2017-12-12T12:18:30.678Z,5800
2017-12-12T12:19:31.401Z,6208
2017-12-12T12:20:32.137Z,5712
2017-12-12T12:21:32.928Z,5640
2017-12-12T12:22:33.707Z,5296
2017-12-12T12:23:34.483Z,4592
2017-12-12T12:24:35.213Z,4652
2017-12-12T12:25:36.009Z,4672
2017-12-12T12:26:36.805Z,4684
2017-12-12T12:27:37.650Z,4524
2017-12-12T12:28:38.384Z,4500
2017-12-12T12:29:39.182Z,4344
2017-12-12T12:30:39.903Z,3932
2017-12-12T12:31:40.721Z,4396
2017-12-12T12:32:41.539Z,4504
2017-12-12T12:33:42.366Z,5120
2017-12-12T12:34:43.139Z,5164
2017-12-12T12:35:43.860Z,5248
2017-12-12T12:36:44.579Z,5064
2017-12-12T12:37:45.359Z,5136
2017-12-12T12:38:46.094Z,5668
2017-12-12T12:39:46.871Z,5684
2017-12-12T12:40:47.599Z,5476
2017-12-12T12:41:48.401Z,5044
2017-12-12T12:42:49.167Z,4740
2017-12-12T12:43:49.892Z,4884
2017-12-12T12:44:50.624Z,4860
2017-12-12T12:45:51.420Z,5312
2017-12-12T12:46:52.134Z,5604
2017-12-12T12:47:52.911Z,4912
2017-12-12T12:48:53.641Z,4292
2017-12-12T12:49:54.365Z,4228
2017-12-12T12:50:55.083Z,4000
2017-12-12T12:51:55.857Z,3740
2017-12-12T12:52:56.640Z,3468
2017-12-12T12:53:57.423Z,3296
2017-12-12T12:54:58.155Z,3636
2017-12-12T12:55:58.887Z,3720
2017-12-12T12:56:59.663Z,4140
2017-12-12T12:58:00.369Z,3972
2017-12-12T12:59:01.092Z,3768
2017-12-12T13:00:01.801Z,3436
2017-12-12T13:01:02.643Z,3468
2017-12-12T13:02:03.418Z,3524
2017-12-12T13:03:04.173Z,3556
2017-12-12T13:04:04.898Z,3572
2017-12-12T13:05:05.626Z,3868
2017-12-12T13:06:06.348Z,3616
2017-12-12T13:07:07.068Z,3720
2017-12-12T13:08:07.803Z,3608
2017-12-12T13:09:08.608Z,3852
2017-12-12T13:10:09.396Z,3948
2017-12-12T13:11:10.212Z,4240
2017-12-12T13:12:10.936Z,4720
2017-12-12T13:13:11.752Z,4452
2017-12-12T13:14:12.481Z,4304
2017-12-12T13:15:13.200Z,4464
2017-12-12T13:16:14.003Z,3892
2017-12-12T13:17:14.723Z,3760
2017-12-12T13:18:15.508Z,3920
2017-12-12T13:19:16.269Z,4184
2017-12-12T13:20:17.012Z,3728
2017-12-12T13:21:17.856Z,3760
2017-12-12T13:22:18.582Z,3616
2017-12-12T13:23:19.324Z,4016
2017-12-12T13:24:20.113Z,4116
2017-12-12T13:25:20.828Z,3868
2017-12-12T13:26:21.556Z,4432
2017-12-12T13:27:22.275Z,3964
2017-12-12T13:28:22.997Z,3848
2017-12-12T13:29:23.782Z,3908
2017-12-12T13:30:24.523Z,4088
2017-12-12T13:31:25.305Z,4420
2017-12-12T13:32:26.088Z,4676
2017-12-12T13:33:26.818Z,4488
2017-12-12T13:34:27.602Z,3936
2017-12-12T13:35:28.382Z,4328
2017-12-12T13:36:29.163Z,4124
2017-12-12T13:37:29.893Z,4336
2017-12-12T13:38:30.685Z,4136
2017-12-12T13:39:31.399Z,4252
2017-12-12T13:40:32.196Z,4284
2017-12-12T13:41:34.668Z,3968
2017-12-12T13:42:36.749Z,3740
2017-12-12T13:43:39.160Z,3764
2017-12-12T13:44:40.774Z,3696
2017-12-12T13:45:41.769Z,3832
2017-12-12T13:46:42.504Z,4016
2017-12-12T13:47:43.276Z,4032
2017-12-12T13:48:44.298Z,3768
2017-12-12T13:49:46.037Z,3776
2017-12-12T13:50:47.172Z,4028
2017-12-12T13:51:49.888Z,3700
2017-12-12T13:52:51.973Z,4088
2017-12-12T13:53:53.966Z,4472
2017-12-12T13:56:10.364Z,3608
2017-12-12T13:57:12.891Z,3292
2017-12-12T13:58:15.030Z,3204
2017-12-12T13:59:17.208Z,3356
2017-12-12T14:00:19.149Z,3212
2017-12-12T14:01:21.313Z,3052
2017-12-12T14:02:22.986Z,3048
2017-12-12T14:03:23.943Z,2388
2017-12-12T14:04:25.451Z,2492
2017-12-12T14:05:27.678Z,2668
2017-12-12T14:06:30.757Z,2408
2017-12-12T14:08:49.155Z,2612
2017-12-12T14:09:54.032Z,2484
2017-12-12T14:10:56.154Z,2132
2017-12-12T14:11:58.227Z,2080
2017-12-12T14:14:02.429Z,1760
2017-12-12T14:15:04.909Z,1628
2017-12-12T14:16:06.990Z,1512
2017-12-12T14:17:09.293Z,1500
2017-12-12T14:18:10.847Z,1380
2017-12-12T14:19:11.851Z,1244
2017-12-12T14:20:12.662Z,1240